Aviation Digital Data Service (ADDS)

Output produced by METARs form (0255 UTC 22 April 2019)
found at http://www.aviationweather.gov/metar/data/
 
METAR text: GCLP 220230Z 36014KT 9999 FEW025 18/13 Q1014 NOSIG
Conditions at: GCLP (LAS PALMAS/GANDO, ES) observed 0230 UTC 22 April 2019
Temperature: 18.0°C (64°F)
Dewpoint: 13.0°C (55°F) [RH = 73%]
Pressure (altimeter): 29.94 inches Hg (1014.0 mb)
Winds: from the N (360 degrees) at 16 MPH (14 knots; 7.2 m/s)
Visibility: 6 or more miles (10+ km)
Ceiling: at least 12,000 feet AGL
Clouds: few clouds at 2500 feet AGL
Weather: no significant weather observed at this time

METAR text: GCLP 220200Z 36013KT 310V020 9999 FEW025 18/13 Q1014 NOSIG
Conditions at: GCLP (LAS PALMAS/GANDO, ES) observed 0200 UTC 22 April 2019
Temperature: 18.0°C (64°F)
Dewpoint: 13.0°C (55°F) [RH = 73%]
Pressure (altimeter): 29.94 inches Hg (1014.0 mb)
Winds: from the N (360 degrees) at 15 MPH (13 knots; 6.7 m/s)
Visibility: 6 or more miles (10+ km)
Ceiling: at least 12,000 feet AGL
Clouds: few clouds at 2500 feet AGL
Weather: no significant weather observed at this time

METAR text: GCLP 220130Z 36010KT 9999 FEW025 18/13 Q1015 NOSIG
Conditions at: GCLP (LAS PALMAS/GANDO, ES) observed 0130 UTC 22 April 2019
Temperature: 18.0°C (64°F)
Dewpoint: 13.0°C (55°F) [RH = 73%]
Pressure (altimeter): 29.97 inches Hg (1015.0 mb)
Winds: from the N (360 degrees) at 12 MPH (10 knots; 5.1 m/s)
Visibility: 6 or more miles (10+ km)
Ceiling: at least 12,000 feet AGL
Clouds: few clouds at 2500 feet AGL
Weather: no significant weather observed at this time

METAR text: GCLP 220100Z 36013KT 9999 FEW025 18/13 Q1015 NOSIG
Conditions at: GCLP (LAS PALMAS/GANDO, ES) observed 0100 UTC 22 April 2019
Temperature: 18.0°C (64°F)
Dewpoint: 13.0°C (55°F) [RH = 73%]
Pressure (altimeter): 29.97 inches Hg (1015.0 mb)
Winds: from the N (360 degrees) at 15 MPH (13 knots; 6.7 m/s)
Visibility: 6 or more miles (10+ km)
Ceiling: at least 12,000 feet AGL
Clouds: few clouds at 2500 feet AGL
Weather: no significant weather observed at this time

METAR text: GCLP 220030Z 01014KT 9999 FEW025 18/13 Q1015 NOSIG
Conditions at: GCLP (LAS PALMAS/GANDO, ES) observed 0030 UTC 22 April 2019
Temperature: 18.0°C (64°F)
Dewpoint: 13.0°C (55°F) [RH = 73%]
Pressure (altimeter): 29.97 inches Hg (1015.0 mb)
Winds: from the N (10 degrees) at 16 MPH (14 knots; 7.2 m/s)
Visibility: 6 or more miles (10+ km)
Ceiling: at least 12,000 feet AGL
Clouds: few clouds at 2500 feet AGL
Weather: no significant weather observed at this time

METAR text: GCLP 220000Z 35013KT 9999 FEW025 19/13 Q1015 NOSIG
Conditions at: GCLP (LAS PALMAS/GANDO, ES) observed 0000 UTC 22 April 2019
Temperature: 19.0°C (66°F)
Dewpoint: 13.0°C (55°F) [RH = 68%]
Pressure (altimeter): 29.97 inches Hg (1015.0 mb)
Winds: from the N (350 degrees) at 15 MPH (13 knots; 6.7 m/s)
Visibility: 6 or more miles (10+ km)
Ceiling: at least 12,000 feet AGL
Clouds: few clouds at 2500 feet AGL
Weather: no significant weather observed at this time

METAR text: GCLP 212330Z 01015KT 9999 FEW025 18/14 Q1016 NOSIG
Conditions at: GCLP (LAS PALMAS/GANDO, ES) observed 2330 UTC 21 April 2019
Temperature: 18.0°C (64°F)
Dewpoint: 14.0°C (57°F) [RH = 77%]
Pressure (altimeter): 30.00 inches Hg (1016.0 mb)
Winds: from the N (10 degrees) at 17 MPH (15 knots; 7.7 m/s)
Visibility: 6 or more miles (10+ km)
Ceiling: at least 12,000 feet AGL
Clouds: few clouds at 2500 feet AGL
Weather: no significant weather observed at this time

METAR text: GCLP 212300Z 01013KT 9999 FEW025 19/14 Q1016 NOSIG
Conditions at: GCLP (LAS PALMAS/GANDO, ES) observed 2300 UTC 21 April 2019
Temperature: 19.0°C (66°F)
Dewpoint: 14.0°C (57°F) [RH = 73%]
Pressure (altimeter): 30.00 inches Hg (1016.0 mb)
Winds: from the N (10 degrees) at 15 MPH (13 knots; 6.7 m/s)
Visibility: 6 or more miles (10+ km)
Ceiling: at least 12,000 feet AGL
Clouds: few clouds at 2500 feet AGL
Weather: no significant weather observed at this time

METAR text: GCLP 212230Z 35011KT 320V020 9999 FEW030 19/13 Q1016 NOSIG
Conditions at: GCLP (LAS PALMAS/GANDO, ES) observed 2230 UTC 21 April 2019
Temperature: 19.0°C (66°F)
Dewpoint: 13.0°C (55°F) [RH = 68%]
Pressure (altimeter): 30.00 inches Hg (1016.0 mb)
Winds: from the N (350 degrees) at 13 MPH (11 knots; 5.7 m/s)
Visibility: 6 or more miles (10+ km)
Ceiling: at least 12,000 feet AGL
Clouds: few clouds at 3000 feet AGL
Weather: no significant weather observed at this time

METAR text: GCLP 212200Z 36014KT 330V030 9999 FEW030 19/13 Q1016 NOSIG
Conditions at: GCLP (LAS PALMAS/GANDO, ES) observed 2200 UTC 21 April 2019
Temperature: 19.0°C (66°F)
Dewpoint: 13.0°C (55°F) [RH = 68%]
Pressure (altimeter): 30.00 inches Hg (1016.0 mb)
Winds: from the N (360 degrees) at 16 MPH (14 knots; 7.2 m/s)
Visibility: 6 or more miles (10+ km)
Ceiling: at least 12,000 feet AGL
Clouds: few clouds at 3000 feet AGL
Weather: no significant weather observed at this time

METAR text: GCLP 212130Z 01013KT 9999 FEW030 19/14 Q1016 NOSIG
Conditions at: GCLP (LAS PALMAS/GANDO, ES) observed 2130 UTC 21 April 2019
Temperature: 19.0°C (66°F)
Dewpoint: 14.0°C (57°F) [RH = 73%]
Pressure (altimeter): 30.00 inches Hg (1016.0 mb)
Winds: from the N (10 degrees) at 15 MPH (13 knots; 6.7 m/s)
Visibility: 6 or more miles (10+ km)
Ceiling: at least 12,000 feet AGL
Clouds: few clouds at 3000 feet AGL
Weather: no significant weather observed at this time

METAR text: GCLP 212100Z 01013KT 9999 FEW030 19/14 Q1016 NOSIG
Conditions at: GCLP (LAS PALMAS/GANDO, ES) observed 2100 UTC 21 April 2019
Temperature: 19.0°C (66°F)
Dewpoint: 14.0°C (57°F) [RH = 73%]
Pressure (altimeter): 30.00 inches Hg (1016.0 mb)
Winds: from the N (10 degrees) at 15 MPH (13 knots; 6.7 m/s)
Visibility: 6 or more miles (10+ km)
Ceiling: at least 12,000 feet AGL
Clouds: few clouds at 3000 feet AGL
Weather: no significant weather observed at this time

METAR text: GCLP 212030Z 01014KT 9999 FEW030 19/14 Q1015 NOSIG
Conditions at: GCLP (LAS PALMAS/GANDO, ES) observed 2030 UTC 21 April 2019
Temperature: 19.0°C (66°F)
Dewpoint: 14.0°C (57°F) [RH = 73%]
Pressure (altimeter): 29.97 inches Hg (1015.0 mb)
Winds: from the N (10 degrees) at 16 MPH (14 knots; 7.2 m/s)
Visibility: 6 or more miles (10+ km)
Ceiling: at least 12,000 feet AGL
Clouds: few clouds at 3000 feet AGL
Weather: no significant weather observed at this time

METAR text: GCLP 212000Z 36015KT 9999 FEW030 19/14 Q1015 WS ALL RWY NOSIG
Conditions at: GCLP (LAS PALMAS/GANDO, ES) observed 2000 UTC 21 April 2019
Temperature: 19.0°C (66°F)
Dewpoint: 14.0°C (57°F) [RH = 73%]
Pressure (altimeter): 29.97 inches Hg (1015.0 mb)
Winds: from the N (360 degrees) at 17 MPH (15 knots; 7.7 m/s)
Visibility: 6 or more miles (10+ km)
Ceiling: at least 12,000 feet AGL
Clouds: few clouds at 3000 feet AGL
Weather: no significant weather observed at this time

METAR text: GCLP 211930Z 01015KT 9999 FEW030 20/13 Q1015 WS ALL RWY NOSIG
Conditions at: GCLP (LAS PALMAS/GANDO, ES) observed 1930 UTC 21 April 2019
Temperature: 20.0°C (68°F)
Dewpoint: 13.0°C (55°F) [RH = 64%]
Pressure (altimeter): 29.97 inches Hg (1015.0 mb)
Winds: from the N (10 degrees) at 17 MPH (15 knots; 7.7 m/s)
Visibility: 6 or more miles (10+ km)
Ceiling: at least 12,000 feet AGL
Clouds: few clouds at 3000 feet AGL
Weather: no significant weather observed at this time

METAR text: GCLP 211900Z 01017KT 9999 FEW035 20/14 Q1015 WS ALL RWY NOSIG
Conditions at: GCLP (LAS PALMAS/GANDO, ES) observed 1900 UTC 21 April 2019
Temperature: 20.0°C (68°F)
Dewpoint: 14.0°C (57°F) [RH = 68%]
Pressure (altimeter): 29.97 inches Hg (1015.0 mb)
Winds: from the N (10 degrees) at 20 MPH (17 knots; 8.7 m/s)
Visibility: 6 or more miles (10+ km)
Ceiling: at least 12,000 feet AGL
Clouds: few clouds at 3500 feet AGL
Weather: no significant weather observed at this time

METAR text: GCLP 211830Z 01018KT 330V030 9999 FEW035 21/13 Q1015 WS ALL RWY NOSIG
Conditions at: GCLP (LAS PALMAS/GANDO, ES) observed 1830 UTC 21 April 2019
Temperature: 21.0°C (70°F)
Dewpoint: 13.0°C (55°F) [RH = 60%]
Pressure (altimeter): 29.97 inches Hg (1015.0 mb)
Winds: from the N (10 degrees) at 21 MPH (18 knots; 9.3 m/s)
Visibility: 6 or more miles (10+ km)
Ceiling: at least 12,000 feet AGL
Clouds: few clouds at 3500 feet AGL
Weather: no significant weather observed at this time

METAR text: GCLP 211800Z 36017KT 9999 FEW035 21/13 Q1015 WS ALL RWY NOSIG
Conditions at: GCLP (LAS PALMAS/GANDO, ES) observed 1800 UTC 21 April 2019
Temperature: 21.0°C (70°F)
Dewpoint: 13.0°C (55°F) [RH = 60%]
Pressure (altimeter): 29.97 inches Hg (1015.0 mb)
Winds: from the N (360 degrees) at 20 MPH (17 knots; 8.7 m/s)
Visibility: 6 or more miles (10+ km)
Ceiling: at least 12,000 feet AGL
Clouds: few clouds at 3500 feet AGL
Weather: no significant weather observed at this time

METAR text: GCLP 211730Z 01020KT 9999 SCT035 22/13 Q1015 WS ALL RWY NOSIG
Conditions at: GCLP (LAS PALMAS/GANDO, ES) observed 1730 UTC 21 April 2019
Temperature: 22.0°C (72°F)
Dewpoint: 13.0°C (55°F) [RH = 57%]
Pressure (altimeter): 29.97 inches Hg (1015.0 mb)
Winds: from the N (10 degrees) at 23 MPH (20 knots; 10.3 m/s)
Visibility: 6 or more miles (10+ km)
Ceiling: at least 12,000 feet AGL
Clouds: scattered clouds at 3500 feet AGL
Weather: no significant weather observed at this time

METAR text: GCLP 211700Z 01022KT 340V040 9999 SCT035 22/13 Q1015 NOSIG
Conditions at: GCLP (LAS PALMAS/GANDO, ES) observed 1700 UTC 21 April 2019
Temperature: 22.0°C (72°F)
Dewpoint: 13.0°C (55°F) [RH = 57%]
Pressure (altimeter): 29.97 inches Hg (1015.0 mb)
Winds: from the N (10 degrees) at 25 MPH (22 knots; 11.3 m/s)
Visibility: 6 or more miles (10+ km)
Ceiling: at least 12,000 feet AGL
Clouds: scattered clouds at 3500 feet AGL
Weather: no significant weather observed at this time

METAR text: GCLP 211630Z 01020KT 330V030 9999 SCT035 22/14 Q1015 WS ALL RWY NOSIG
Conditions at: GCLP (LAS PALMAS/GANDO, ES) observed 1630 UTC 21 April 2019
Temperature: 22.0°C (72°F)
Dewpoint: 14.0°C (57°F) [RH = 60%]
Pressure (altimeter): 29.97 inches Hg (1015.0 mb)
Winds: from the N (10 degrees) at 23 MPH (20 knots; 10.3 m/s)
Visibility: 6 or more miles (10+ km)
Ceiling: at least 12,000 feet AGL
Clouds: scattered clouds at 3500 feet AGL
Weather: no significant weather observed at this time

METAR text: GCLP 211600Z 03024KT 9999 SCT035 22/14 Q1015 WS ALL RWY NOSIG
Conditions at: GCLP (LAS PALMAS/GANDO, ES) observed 1600 UTC 21 April 2019
Temperature: 22.0°C (72°F)
Dewpoint: 14.0°C (57°F) [RH = 60%]
Pressure (altimeter): 29.97 inches Hg (1015.0 mb)
Winds: from the NNE (30 degrees) at 28 MPH (24 knots; 12.3 m/s)
Visibility: 6 or more miles (10+ km)
Ceiling: at least 12,000 feet AGL
Clouds: scattered clouds at 3500 feet AGL
Weather: no significant weather observed at this time

METAR text: GCLP 211530Z 35018KT 320V020 9999 SCT040 23/13 Q1015 WS ALL RWY NOSIG
Conditions at: GCLP (LAS PALMAS/GANDO, ES) observed 1530 UTC 21 April 2019
Temperature: 23.0°C (73°F)
Dewpoint: 13.0°C (55°F) [RH = 53%]
Pressure (altimeter): 29.97 inches Hg (1015.0 mb)
Winds: from the N (350 degrees) at 21 MPH (18 knots; 9.3 m/s)
Visibility: 6 or more miles (10+ km)
Ceiling: at least 12,000 feet AGL
Clouds: scattered clouds at 4000 feet AGL
Weather: no significant weather observed at this time

METAR text: GCLP 211500Z 01021KT 340V040 9999 SCT040 24/13 Q1015 WS ALL RWY NOSIG
Conditions at: GCLP (LAS PALMAS/GANDO, ES) observed 1500 UTC 21 April 2019
Temperature: 24.0°C (75°F)
Dewpoint: 13.0°C (55°F) [RH = 50%]
Pressure (altimeter): 29.97 inches Hg (1015.0 mb)
Winds: from the N (10 degrees) at 24 MPH (21 knots; 10.8 m/s)
Visibility: 6 or more miles (10+ km)
Ceiling: at least 12,000 feet AGL
Clouds: scattered clouds at 4000 feet AGL
Weather: no significant weather observed at this time

METAR text: GCLP 211430Z 02018KT 340V050 9999 FEW040 24/12 Q1015 NOSIG
Conditions at: GCLP (LAS PALMAS/GANDO, ES) observed 1430 UTC 21 April 2019
Temperature: 24.0°C (75°F)
Dewpoint: 12.0°C (54°F) [RH = 47%]
Pressure (altimeter): 29.97 inches Hg (1015.0 mb)
Winds: from the NNE (20 degrees) at 21 MPH (18 knots; 9.3 m/s)
Visibility: 6 or more miles (10+ km)
Ceiling: at least 12,000 feet AGL
Clouds: few clouds at 4000 feet AGL
Weather: no significant weather observed at this time

METAR text: GCLP 211400Z 36018KT 330V050 9999 FEW040 24/11 Q1015 NOSIG
Conditions at: GCLP (LAS PALMAS/GANDO, ES) observed 1400 UTC 21 April 2019
Temperature: 24.0°C (75°F)
Dewpoint: 11.0°C (52°F) [RH = 44%]
Pressure (altimeter): 29.97 inches Hg (1015.0 mb)
Winds: from the N (360 degrees) at 21 MPH (18 knots; 9.3 m/s)
Visibility: 6 or more miles (10+ km)
Ceiling: at least 12,000 feet AGL
Clouds: few clouds at 4000 feet AGL
Weather: no significant weather observed at this time

METAR text: GCLP 211330Z 35016KT 300V030 9999 FEW040 24/12 Q1016 NOSIG
Conditions at: GCLP (LAS PALMAS/GANDO, ES) observed 1330 UTC 21 April 2019
Temperature: 24.0°C (75°F)
Dewpoint: 12.0°C (54°F) [RH = 47%]
Pressure (altimeter): 30.00 inches Hg (1016.0 mb)
Winds: from the N (350 degrees) at 18 MPH (16 knots; 8.2 m/s)
Visibility: 6 or more miles (10+ km)
Ceiling: at least 12,000 feet AGL
Clouds: few clouds at 4000 feet AGL
Weather: no significant weather observed at this time

METAR text: GCLP 211300Z 01020KT 330V040 9999 FEW035 23/12 Q1016 NOSIG
Conditions at: GCLP (LAS PALMAS/GANDO, ES) observed 1300 UTC 21 April 2019
Temperature: 23.0°C (73°F)
Dewpoint: 12.0°C (54°F) [RH = 50%]
Pressure (altimeter): 30.00 inches Hg (1016.0 mb)
Winds: from the N (10 degrees) at 23 MPH (20 knots; 10.3 m/s)
Visibility: 6 or more miles (10+ km)
Ceiling: at least 12,000 feet AGL
Clouds: few clouds at 3500 feet AGL
Weather: no significant weather observed at this time

METAR text: GCLP 211230Z 36019KT 320V020 9999 FEW035 23/11 Q1016 NOSIG
Conditions at: GCLP (LAS PALMAS/GANDO, ES) observed 1230 UTC 21 April 2019
Temperature: 23.0°C (73°F)
Dewpoint: 11.0°C (52°F) [RH = 47%]
Pressure (altimeter): 30.00 inches Hg (1016.0 mb)
Winds: from the N (360 degrees) at 22 MPH (19 knots; 9.8 m/s)
Visibility: 6 or more miles (10+ km)
Ceiling: at least 12,000 feet AGL
Clouds: few clouds at 3500 feet AGL
Weather: no significant weather observed at this time

METAR text: GCLP 211200Z 01021KT 9999 FEW035 23/09 Q1016 NOSIG
Conditions at: GCLP (LAS PALMAS/GANDO, ES) observed 1200 UTC 21 April 2019
Temperature: 23.0°C (73°F)
Dewpoint: 9.0°C (48°F) [RH = 41%]
Pressure (altimeter): 30.00 inches Hg (1016.0 mb)
Winds: from the N (10 degrees) at 24 MPH (21 knots; 10.8 m/s)
Visibility: 6 or more miles (10+ km)
Ceiling: at least 12,000 feet AGL
Clouds: few clouds at 3500 feet AGL
Weather: no significant weather observed at this time

METAR text: GCLP 211130Z 35018KT 320V020 9999 FEW035 23/10 Q1016 NOSIG
Conditions at: GCLP (LAS PALMAS/GANDO, ES) observed 1130 UTC 21 April 2019
Temperature: 23.0°C (73°F)
Dewpoint: 10.0°C (50°F) [RH = 44%]
Pressure (altimeter): 30.00 inches Hg (1016.0 mb)
Winds: from the N (350 degrees) at 21 MPH (18 knots; 9.3 m/s)
Visibility: 6 or more miles (10+ km)
Ceiling: at least 12,000 feet AGL
Clouds: few clouds at 3500 feet AGL
Weather: no significant weather observed at this time

METAR text: GCLP 211100Z 36018KT 320V040 9999 FEW035 22/11 Q1016 NOSIG
Conditions at: GCLP (LAS PALMAS/GANDO, ES) observed 1100 UTC 21 April 2019
Temperature: 22.0°C (72°F)
Dewpoint: 11.0°C (52°F) [RH = 50%]
Pressure (altimeter): 30.00 inches Hg (1016.0 mb)
Winds: from the N (360 degrees) at 21 MPH (18 knots; 9.3 m/s)
Visibility: 6 or more miles (10+ km)
Ceiling: at least 12,000 feet AGL
Clouds: few clouds at 3500 feet AGL
Weather: no significant weather observed at this time

METAR text: GCLP 211030Z 36017KT 9999 SCT035 22/11 Q1016 NOSIG
Conditions at: GCLP (LAS PALMAS/GANDO, ES) observed 1030 UTC 21 April 2019
Temperature: 22.0°C (72°F)
Dewpoint: 11.0°C (52°F) [RH = 50%]
Pressure (altimeter): 30.00 inches Hg (1016.0 mb)
Winds: from the N (360 degrees) at 20 MPH (17 knots; 8.7 m/s)
Visibility: 6 or more miles (10+ km)
Ceiling: at least 12,000 feet AGL
Clouds: scattered clouds at 3500 feet AGL
Weather: no significant weather observed at this time

METAR text: GCLP 211000Z 36016KT 9999 SCT025 SCT045 20/12 Q1016 NOSIG
Conditions at: GCLP (LAS PALMAS/GANDO, ES) observed 1000 UTC 21 April 2019
Temperature: 20.0°C (68°F)
Dewpoint: 12.0°C (54°F) [RH = 60%]
Pressure (altimeter): 30.00 inches Hg (1016.0 mb)
Winds: from the N (360 degrees) at 18 MPH (16 knots; 8.2 m/s)
Visibility: 6 or more miles (10+ km)
Ceiling: at least 12,000 feet AGL
Clouds: scattered clouds at 2500 feet AGL
scattered clouds at 4500 feet AGL
Weather: no significant weather observed at this time

METAR text: GCLP 210930Z 01020KT 9999 SCT025 SCT035 21/13 Q1016 NOSIG
Conditions at: GCLP (LAS PALMAS/GANDO, ES) observed 0930 UTC 21 April 2019
Temperature: 21.0°C (70°F)
Dewpoint: 13.0°C (55°F) [RH = 60%]
Pressure (altimeter): 30.00 inches Hg (1016.0 mb)
Winds: from the N (10 degrees) at 23 MPH (20 knots; 10.3 m/s)
Visibility: 6 or more miles (10+ km)
Ceiling: at least 12,000 feet AGL
Clouds: scattered clouds at 2500 feet AGL
scattered clouds at 3500 feet AGL
Weather: no significant weather observed at this time

METAR text: GCLP 210900Z 01017KT 320V050 9999 FEW025 SCT040 20/13 Q1016 NOSIG
Conditions at: GCLP (LAS PALMAS/GANDO, ES) observed 0900 UTC 21 April 2019
Temperature: 20.0°C (68°F)
Dewpoint: 13.0°C (55°F) [RH = 64%]
Pressure (altimeter): 30.00 inches Hg (1016.0 mb)
Winds: from the N (10 degrees) at 20 MPH (17 knots; 8.7 m/s)
Visibility: 6 or more miles (10+ km)
Ceiling: at least 12,000 feet AGL
Clouds: few clouds at 2500 feet AGL
scattered clouds at 4000 feet AGL
Weather: no significant weather observed at this time

METAR text: GCLP 210830Z 01016KT 9999 FEW025 SCT040 20/13 Q1015 NOSIG
Conditions at: GCLP (LAS PALMAS/GANDO, ES) observed 0830 UTC 21 April 2019
Temperature: 20.0°C (68°F)
Dewpoint: 13.0°C (55°F) [RH = 64%]
Pressure (altimeter): 29.97 inches Hg (1015.0 mb)
Winds: from the N (10 degrees) at 18 MPH (16 knots; 8.2 m/s)
Visibility: 6 or more miles (10+ km)
Ceiling: at least 12,000 feet AGL
Clouds: few clouds at 2500 feet AGL
scattered clouds at 4000 feet AGL
Weather: no significant weather observed at this time

METAR text: GCLP 210800Z 35013KT 310V010 9999 FEW025 BKN040 18/13 Q1015 NOSIG
Conditions at: GCLP (LAS PALMAS/GANDO, ES) observed 0800 UTC 21 April 2019
Temperature: 18.0°C (64°F)
Dewpoint: 13.0°C (55°F) [RH = 73%]
Pressure (altimeter): 29.97 inches Hg (1015.0 mb)
Winds: from the N (350 degrees) at 15 MPH (13 knots; 6.7 m/s)
Visibility: 6 or more miles (10+ km)
Ceiling: 4000 feet AGL
Clouds: few clouds at 2500 feet AGL
broken clouds at 4000 feet AGL
Weather: no significant weather observed at this time

METAR text: GCLP 210730Z 02014KT 9999 FEW025 BKN050 18/13 Q1015 NOSIG
Conditions at: GCLP (LAS PALMAS/GANDO, ES) observed 0730 UTC 21 April 2019
Temperature: 18.0°C (64°F)
Dewpoint: 13.0°C (55°F) [RH = 73%]
Pressure (altimeter): 29.97 inches Hg (1015.0 mb)
Winds: from the NNE (20 degrees) at 16 MPH (14 knots; 7.2 m/s)
Visibility: 6 or more miles (10+ km)
Ceiling: 5000 feet AGL
Clouds: few clouds at 2500 feet AGL
broken clouds at 5000 feet AGL
Weather: no significant weather observed at this time

METAR text: GCLP 210700Z 36010KT 9999 FEW025 BKN050 18/12 Q1015 NOSIG
Conditions at: GCLP (LAS PALMAS/GANDO, ES) observed 0700 UTC 21 April 2019
Temperature: 18.0°C (64°F)
Dewpoint: 12.0°C (54°F) [RH = 68%]
Pressure (altimeter): 29.97 inches Hg (1015.0 mb)
Winds: from the N (360 degrees) at 12 MPH (10 knots; 5.1 m/s)
Visibility: 6 or more miles (10+ km)
Ceiling: 5000 feet AGL
Clouds: few clouds at 2500 feet AGL
broken clouds at 5000 feet AGL
Weather: no significant weather observed at this time

METAR text: GCLP 210630Z 33010KT 310V010 9999 FEW025 SCT050 17/13 Q1014 NOSIG
Conditions at: GCLP (LAS PALMAS/GANDO, ES) observed 0630 UTC 21 April 2019
Temperature: 17.0°C (63°F)
Dewpoint: 13.0°C (55°F) [RH = 77%]
Pressure (altimeter): 29.94 inches Hg (1014.0 mb)
Winds: from the NNW (330 degrees) at 12 MPH (10 knots; 5.1 m/s)
Visibility: 6 or more miles (10+ km)
Ceiling: at least 12,000 feet AGL
Clouds: few clouds at 2500 feet AGL
scattered clouds at 5000 feet AGL
Weather: no significant weather observed at this time

METAR text: GCLP 210600Z 36011KT 9999 FEW025 18/14 Q1014 NOSIG
Conditions at: GCLP (LAS PALMAS/GANDO, ES) observed 0600 UTC 21 April 2019
Temperature: 18.0°C (64°F)
Dewpoint: 14.0°C (57°F) [RH = 77%]
Pressure (altimeter): 29.94 inches Hg (1014.0 mb)
Winds: from the N (360 degrees) at 13 MPH (11 knots; 5.7 m/s)
Visibility: 6 or more miles (10+ km)
Ceiling: at least 12,000 feet AGL
Clouds: few clouds at 2500 feet AGL
Weather: no significant weather observed at this time

METAR text: GCLP 210530Z 35011KT 9999 FEW025 17/13 Q1014 NOSIG
Conditions at: GCLP (LAS PALMAS/GANDO, ES) observed 0530 UTC 21 April 2019
Temperature: 17.0°C (63°F)
Dewpoint: 13.0°C (55°F) [RH = 77%]
Pressure (altimeter): 29.94 inches Hg (1014.0 mb)
Winds: from the N (350 degrees) at 13 MPH (11 knots; 5.7 m/s)
Visibility: 6 or more miles (10+ km)
Ceiling: at least 12,000 feet AGL
Clouds: few clouds at 2500 feet AGL
Weather: no significant weather observed at this time

METAR text: GCLP 210500Z 36010KT 9999 FEW025 17/13 Q1014 NOSIG
Conditions at: GCLP (LAS PALMAS/GANDO, ES) observed 0500 UTC 21 April 2019
Temperature: 17.0°C (63°F)
Dewpoint: 13.0°C (55°F) [RH = 77%]
Pressure (altimeter): 29.94 inches Hg (1014.0 mb)
Winds: from the N (360 degrees) at 12 MPH (10 knots; 5.1 m/s)
Visibility: 6 or more miles (10+ km)
Ceiling: at least 12,000 feet AGL
Clouds: few clouds at 2500 feet AGL
Weather: no significant weather observed at this time

METAR text: GCLP 210430Z 36012KT 9999 FEW030 17/13 Q1014 NOSIG
Conditions at: GCLP (LAS PALMAS/GANDO, ES) observed 0430 UTC 21 April 2019
Temperature: 17.0°C (63°F)
Dewpoint: 13.0°C (55°F) [RH = 77%]
Pressure (altimeter): 29.94 inches Hg (1014.0 mb)
Winds: from the N (360 degrees) at 14 MPH (12 knots; 6.2 m/s)
Visibility: 6 or more miles (10+ km)
Ceiling: at least 12,000 feet AGL
Clouds: few clouds at 3000 feet AGL
Weather: no significant weather observed at this time

METAR text: GCLP 210400Z 01013KT 9999 FEW030 18/13 Q1014 NOSIG
Conditions at: GCLP (LAS PALMAS/GANDO, ES) observed 0400 UTC 21 April 2019
Temperature: 18.0°C (64°F)
Dewpoint: 13.0°C (55°F) [RH = 73%]
Pressure (altimeter): 29.94 inches Hg (1014.0 mb)
Winds: from the N (10 degrees) at 15 MPH (13 knots; 6.7 m/s)
Visibility: 6 or more miles (10+ km)
Ceiling: at least 12,000 feet AGL
Clouds: few clouds at 3000 feet AGL
Weather: no significant weather observed at this time

METAR text: GCLP 210330Z 36014KT 9999 FEW025 18/13 Q1014 NOSIG
Conditions at: GCLP (LAS PALMAS/GANDO, ES) observed 0330 UTC 21 April 2019
Temperature: 18.0°C (64°F)
Dewpoint: 13.0°C (55°F) [RH = 73%]
Pressure (altimeter): 29.94 inches Hg (1014.0 mb)
Winds: from the N (360 degrees) at 16 MPH (14 knots; 7.2 m/s)
Visibility: 6 or more miles (10+ km)
Ceiling: at least 12,000 feet AGL
Clouds: few clouds at 2500 feet AGL
Weather: no significant weather observed at this time

METAR text: GCLP 210300Z 36013KT 9999 -RA FEW020 BKN050 18/13 Q1015 NOSIG
Conditions at: GCLP (LAS PALMAS/GANDO, ES) observed 0300 UTC 21 April 2019
Temperature: 18.0°C (64°F)
Dewpoint: 13.0°C (55°F) [RH = 73%]
Pressure (altimeter): 29.97 inches Hg (1015.0 mb)
Winds: from the N (360 degrees) at 15 MPH (13 knots; 6.7 m/s)
Visibility: 6 or more miles (10+ km)
Ceiling: 5000 feet AGL
Clouds: few clouds at 2000 feet AGL
broken clouds at 5000 feet AGL
Weather: -RA  (light rain)

METAR text: GCLP 210230Z 35013KT 9999 FEW020 SCT050 18/13 Q1015 NOSIG
Conditions at: GCLP (LAS PALMAS/GANDO, ES) observed 0230 UTC 21 April 2019
Temperature: 18.0°C (64°F)
Dewpoint: 13.0°C (55°F) [RH = 73%]
Pressure (altimeter): 29.97 inches Hg (1015.0 mb)
Winds: from the N (350 degrees) at 15 MPH (13 knots; 6.7 m/s)
Visibility: 6 or more miles (10+ km)
Ceiling: at least 12,000 feet AGL
Clouds: few clouds at 2000 feet AGL
scattered clouds at 5000 feet AGL
Weather: no significant weather observed at this time

METAR text: GCLP 210200Z 35012KT 9999 FEW020 SCT050 18/14 Q1015 NOSIG
Conditions at: GCLP (LAS PALMAS/GANDO, ES) observed 0200 UTC 21 April 2019
Temperature: 18.0°C (64°F)
Dewpoint: 14.0°C (57°F) [RH = 77%]
Pressure (altimeter): 29.97 inches Hg (1015.0 mb)
Winds: from the N (350 degrees) at 14 MPH (12 knots; 6.2 m/s)
Visibility: 6 or more miles (10+ km)
Ceiling: at least 12,000 feet AGL
Clouds: few clouds at 2000 feet AGL
scattered clouds at 5000 feet AGL
Weather: no significant weather observed at this time

METAR text: GCLP 210130Z 35013KT 9999 FEW030 18/14 Q1016 NOSIG
Conditions at: GCLP (LAS PALMAS/GANDO, ES) observed 0130 UTC 21 April 2019
Temperature: 18.0°C (64°F)
Dewpoint: 14.0°C (57°F) [RH = 77%]
Pressure (altimeter): 30.00 inches Hg (1016.0 mb)
Winds: from the N (350 degrees) at 15 MPH (13 knots; 6.7 m/s)
Visibility: 6 or more miles (10+ km)
Ceiling: at least 12,000 feet AGL
Clouds: few clouds at 3000 feet AGL
Weather: no significant weather observed at this time

METAR text: GCLP 210100Z 35013KT 9999 FEW030 SCT050 18/13 Q1016 NOSIG
Conditions at: GCLP (LAS PALMAS/GANDO, ES) observed 0100 UTC 21 April 2019
Temperature: 18.0°C (64°F)
Dewpoint: 13.0°C (55°F) [RH = 73%]
Pressure (altimeter): 30.00 inches Hg (1016.0 mb)
Winds: from the N (350 degrees) at 15 MPH (13 knots; 6.7 m/s)
Visibility: 6 or more miles (10+ km)
Ceiling: at least 12,000 feet AGL
Clouds: few clouds at 3000 feet AGL
scattered clouds at 5000 feet AGL
Weather: no significant weather observed at this time

METAR text: GCLP 210030Z 34014KT 9999 FEW030 BKN055 18/13 Q1016 NOSIG
Conditions at: GCLP (LAS PALMAS/GANDO, ES) observed 0030 UTC 21 April 2019
Temperature: 18.0°C (64°F)
Dewpoint: 13.0°C (55°F) [RH = 73%]
Pressure (altimeter): 30.00 inches Hg (1016.0 mb)
Winds: from the NNW (340 degrees) at 16 MPH (14 knots; 7.2 m/s)
Visibility: 6 or more miles (10+ km)
Ceiling: 5500 feet AGL
Clouds: few clouds at 3000 feet AGL
broken clouds at 5500 feet AGL
Weather: no significant weather observed at this time

METAR text: GCLP 210000Z 34014KT 9999 FEW030 BKN055 18/13 Q1017 NOSIG
Conditions at: GCLP (LAS PALMAS/GANDO, ES) observed 0000 UTC 21 April 2019
Temperature: 18.0°C (64°F)
Dewpoint: 13.0°C (55°F) [RH = 73%]
Pressure (altimeter): 30.03 inches Hg (1017.0 mb)
Winds: from the NNW (340 degrees) at 16 MPH (14 knots; 7.2 m/s)
Visibility: 6 or more miles (10+ km)
Ceiling: 5500 feet AGL
Clouds: few clouds at 3000 feet AGL
broken clouds at 5500 feet AGL
Weather: no significant weather observed at this time

METAR text: GCLP 202330Z 35014KT 310V010 9999 FEW025 BKN050 18/14 Q1017 NOSIG
Conditions at: GCLP (LAS PALMAS/GANDO, ES) observed 2330 UTC 20 April 2019
Temperature: 18.0°C (64°F)
Dewpoint: 14.0°C (57°F) [RH = 77%]
Pressure (altimeter): 30.03 inches Hg (1017.0 mb)
Winds: from the N (350 degrees) at 16 MPH (14 knots; 7.2 m/s)
Visibility: 6 or more miles (10+ km)
Ceiling: 5000 feet AGL
Clouds: few clouds at 2500 feet AGL
broken clouds at 5000 feet AGL
Weather: no significant weather observed at this time

METAR text: GCLP 202300Z 35012KT 9999 FEW030 BKN055 18/13 Q1017 NOSIG
Conditions at: GCLP (LAS PALMAS/GANDO, ES) observed 2300 UTC 20 April 2019
Temperature: 18.0°C (64°F)
Dewpoint: 13.0°C (55°F) [RH = 73%]
Pressure (altimeter): 30.03 inches Hg (1017.0 mb)
Winds: from the N (350 degrees) at 14 MPH (12 knots; 6.2 m/s)
Visibility: 6 or more miles (10+ km)
Ceiling: 5500 feet AGL
Clouds: few clouds at 3000 feet AGL
broken clouds at 5500 feet AGL
Weather: no significant weather observed at this time

METAR text: GCLP 202230Z 35012KT 9999 FEW030 BKN055 19/13 Q1017 NOSIG
Conditions at: GCLP (LAS PALMAS/GANDO, ES) observed 2230 UTC 20 April 2019
Temperature: 19.0°C (66°F)
Dewpoint: 13.0°C (55°F) [RH = 68%]
Pressure (altimeter): 30.03 inches Hg (1017.0 mb)
Winds: from the N (350 degrees) at 14 MPH (12 knots; 6.2 m/s)
Visibility: 6 or more miles (10+ km)
Ceiling: 5500 feet AGL
Clouds: few clouds at 3000 feet AGL
broken clouds at 5500 feet AGL
Weather: no significant weather observed at this time

METAR text: GCLP 202200Z 35014KT 9999 FEW030 BKN055 19/13 Q1017 NOSIG
Conditions at: GCLP (LAS PALMAS/GANDO, ES) observed 2200 UTC 20 April 2019
Temperature: 19.0°C (66°F)
Dewpoint: 13.0°C (55°F) [RH = 68%]
Pressure (altimeter): 30.03 inches Hg (1017.0 mb)
Winds: from the N (350 degrees) at 16 MPH (14 knots; 7.2 m/s)
Visibility: 6 or more miles (10+ km)
Ceiling: 5500 feet AGL
Clouds: few clouds at 3000 feet AGL
broken clouds at 5500 feet AGL
Weather: no significant weather observed at this time

METAR text: GCLP 202130Z 35014KT 9999 FEW030 BKN050 19/13 Q1017 NOSIG
Conditions at: GCLP (LAS PALMAS/GANDO, ES) observed 2130 UTC 20 April 2019
Temperature: 19.0°C (66°F)
Dewpoint: 13.0°C (55°F) [RH = 68%]
Pressure (altimeter): 30.03 inches Hg (1017.0 mb)
Winds: from the N (350 degrees) at 16 MPH (14 knots; 7.2 m/s)
Visibility: 6 or more miles (10+ km)
Ceiling: 5000 feet AGL
Clouds: few clouds at 3000 feet AGL
broken clouds at 5000 feet AGL
Weather: no significant weather observed at this time

METAR text: GCLP 202100Z 35016KT 9999 FEW030 BKN050 19/12 Q1016 NOSIG
Conditions at: GCLP (LAS PALMAS/GANDO, ES) observed 2100 UTC 20 April 2019
Temperature: 19.0°C (66°F)
Dewpoint: 12.0°C (54°F) [RH = 64%]
Pressure (altimeter): 30.00 inches Hg (1016.0 mb)
Winds: from the N (350 degrees) at 18 MPH (16 knots; 8.2 m/s)
Visibility: 6 or more miles (10+ km)
Ceiling: 5000 feet AGL
Clouds: few clouds at 3000 feet AGL
broken clouds at 5000 feet AGL
Weather: no significant weather observed at this time

METAR text: GCLP 202030Z 36013KT 9999 FEW025 SCT050 19/13 Q1016 NOSIG
Conditions at: GCLP (LAS PALMAS/GANDO, ES) observed 2030 UTC 20 April 2019
Temperature: 19.0°C (66°F)
Dewpoint: 13.0°C (55°F) [RH = 68%]
Pressure (altimeter): 30.00 inches Hg (1016.0 mb)
Winds: from the N (360 degrees) at 15 MPH (13 knots; 6.7 m/s)
Visibility: 6 or more miles (10+ km)
Ceiling: at least 12,000 feet AGL
Clouds: few clouds at 2500 feet AGL
scattered clouds at 5000 feet AGL
Weather: no significant weather observed at this time

METAR text: GCLP 202000Z 35012KT 9999 FEW025 18/12 Q1016 NOSIG
Conditions at: GCLP (LAS PALMAS/GANDO, ES) observed 2000 UTC 20 April 2019
Temperature: 18.0°C (64°F)
Dewpoint: 12.0°C (54°F) [RH = 68%]
Pressure (altimeter): 30.00 inches Hg (1016.0 mb)
Winds: from the N (350 degrees) at 14 MPH (12 knots; 6.2 m/s)
Visibility: 6 or more miles (10+ km)
Ceiling: at least 12,000 feet AGL
Clouds: few clouds at 2500 feet AGL
Weather: no significant weather observed at this time

METAR text: GCLP 201930Z 36016KT 9999 FEW025 19/11 Q1016 NOSIG
Conditions at: GCLP (LAS PALMAS/GANDO, ES) observed 1930 UTC 20 April 2019
Temperature: 19.0°C (66°F)
Dewpoint: 11.0°C (52°F) [RH = 60%]
Pressure (altimeter): 30.00 inches Hg (1016.0 mb)
Winds: from the N (360 degrees) at 18 MPH (16 knots; 8.2 m/s)
Visibility: 6 or more miles (10+ km)
Ceiling: at least 12,000 feet AGL
Clouds: few clouds at 2500 feet AGL
Weather: no significant weather observed at this time

METAR text: GCLP 201900Z 35014KT 9999 FEW030 SCT050 19/12 Q1015 NOSIG
Conditions at: GCLP (LAS PALMAS/GANDO, ES) observed 1900 UTC 20 April 2019
Temperature: 19.0°C (66°F)
Dewpoint: 12.0°C (54°F) [RH = 64%]
Pressure (altimeter): 29.97 inches Hg (1015.0 mb)
Winds: from the N (350 degrees) at 16 MPH (14 knots; 7.2 m/s)
Visibility: 6 or more miles (10+ km)
Ceiling: at least 12,000 feet AGL
Clouds: few clouds at 3000 feet AGL
scattered clouds at 5000 feet AGL
Weather: no significant weather observed at this time

METAR text: GCLP 201830Z 35016KT 9999 FEW030 SCT055 20/11 Q1015 NOSIG
Conditions at: GCLP (LAS PALMAS/GANDO, ES) observed 1830 UTC 20 April 2019
Temperature: 20.0°C (68°F)
Dewpoint: 11.0°C (52°F) [RH = 56%]
Pressure (altimeter): 29.97 inches Hg (1015.0 mb)
Winds: from the N (350 degrees) at 18 MPH (16 knots; 8.2 m/s)
Visibility: 6 or more miles (10+ km)
Ceiling: at least 12,000 feet AGL
Clouds: few clouds at 3000 feet AGL
scattered clouds at 5500 feet AGL
Weather: no significant weather observed at this time

METAR text: GCLP 201800Z 35015KT 9999 FEW030 SCT040 BKN055 20/11 Q1015 NOSIG
Conditions at: GCLP (LAS PALMAS/GANDO, ES) observed 1800 UTC 20 April 2019
Temperature: 20.0°C (68°F)
Dewpoint: 11.0°C (52°F) [RH = 56%]
Pressure (altimeter): 29.97 inches Hg (1015.0 mb)
Winds: from the N (350 degrees) at 17 MPH (15 knots; 7.7 m/s)
Visibility: 6 or more miles (10+ km)
Ceiling: 5500 feet AGL
Clouds: few clouds at 3000 feet AGL
scattered clouds at 4000 feet AGL
broken clouds at 5500 feet AGL
Weather: no significant weather observed at this time

METAR text: GCLP 201730Z 35015KT 320V030 9999 FEW035 BKN050 20/11 Q1015 NOSIG
Conditions at: GCLP (LAS PALMAS/GANDO, ES) observed 1730 UTC 20 April 2019
Temperature: 20.0°C (68°F)
Dewpoint: 11.0°C (52°F) [RH = 56%]
Pressure (altimeter): 29.97 inches Hg (1015.0 mb)
Winds: from the N (350 degrees) at 17 MPH (15 knots; 7.7 m/s)
Visibility: 6 or more miles (10+ km)
Ceiling: 5000 feet AGL
Clouds: few clouds at 3500 feet AGL
broken clouds at 5000 feet AGL
Weather: no significant weather observed at this time

METAR text: GCLP 201700Z 35017KT 320V020 9999 FEW040 BKN055 21/10 Q1015 NOSIG
Conditions at: GCLP (LAS PALMAS/GANDO, ES) observed 1700 UTC 20 April 2019
Temperature: 21.0°C (70°F)
Dewpoint: 10.0°C (50°F) [RH = 49%]
Pressure (altimeter): 29.97 inches Hg (1015.0 mb)
Winds: from the N (350 degrees) at 20 MPH (17 knots; 8.7 m/s)
Visibility: 6 or more miles (10+ km)
Ceiling: 5500 feet AGL
Clouds: few clouds at 4000 feet AGL
broken clouds at 5500 feet AGL
Weather: no significant weather observed at this time

METAR text: GCLP 201630Z 35018KT 300V010 9999 FEW035 SCT050 21/10 Q1015 NOSIG
Conditions at: GCLP (LAS PALMAS/GANDO, ES) observed 1630 UTC 20 April 2019
Temperature: 21.0°C (70°F)
Dewpoint: 10.0°C (50°F) [RH = 49%]
Pressure (altimeter): 29.97 inches Hg (1015.0 mb)
Winds: from the N (350 degrees) at 21 MPH (18 knots; 9.3 m/s)
Visibility: 6 or more miles (10+ km)
Ceiling: at least 12,000 feet AGL
Clouds: few clouds at 3500 feet AGL
scattered clouds at 5000 feet AGL
Weather: no significant weather observed at this time

METAR text: GCLP 201600Z 36020KT 330V030 9999 FEW035 BKN055 21/12 Q1015 NOSIG
Conditions at: GCLP (LAS PALMAS/GANDO, ES) observed 1600 UTC 20 April 2019
Temperature: 21.0°C (70°F)
Dewpoint: 12.0°C (54°F) [RH = 56%]
Pressure (altimeter): 29.97 inches Hg (1015.0 mb)
Winds: from the N (360 degrees) at 23 MPH (20 knots; 10.3 m/s)
Visibility: 6 or more miles (10+ km)
Ceiling: 5500 feet AGL
Clouds: few clouds at 3500 feet AGL
broken clouds at 5500 feet AGL
Weather: no significant weather observed at this time

METAR text: GCLP 201530Z 01021KT 340V050 9999 FEW035 SCT040 BKN055 21/11 Q1015 NOSIG
Conditions at: GCLP (LAS PALMAS/GANDO, ES) observed 1530 UTC 20 April 2019
Temperature: 21.0°C (70°F)
Dewpoint: 11.0°C (52°F) [RH = 53%]
Pressure (altimeter): 29.97 inches Hg (1015.0 mb)
Winds: from the N (10 degrees) at 24 MPH (21 knots; 10.8 m/s)
Visibility: 6 or more miles (10+ km)
Ceiling: 5500 feet AGL
Clouds: few clouds at 3500 feet AGL
scattered clouds at 4000 feet AGL
broken clouds at 5500 feet AGL
Weather: no significant weather observed at this time

METAR text: GCLP 201500Z 02020KT 9999 FEW035 SCT040 BKN055 22/13 Q1016 NOSIG
Conditions at: GCLP (LAS PALMAS/GANDO, ES) observed 1500 UTC 20 April 2019
Temperature: 22.0°C (72°F)
Dewpoint: 13.0°C (55°F) [RH = 57%]
Pressure (altimeter): 30.00 inches Hg (1016.0 mb)
Winds: from the NNE (20 degrees) at 23 MPH (20 knots; 10.3 m/s)
Visibility: 6 or more miles (10+ km)
Ceiling: 5500 feet AGL
Clouds: few clouds at 3500 feet AGL
scattered clouds at 4000 feet AGL
broken clouds at 5500 feet AGL
Weather: no significant weather observed at this time

Forecast for: GCLP (LAS PALMAS/GANDO, ES)
Text: TAF GCLP 220200Z 2203/2303 36014KT 9999 SCT035 TX24/2214Z TN17/2205Z
Forecast period: 0300 to 0400 UTC 22 April 2019
Forecast type: FROM: standard forecast or significant change
Winds: from the N (360 degrees) at 16 MPH (14 knots; 7.2 m/s)
Visibility: 6 or more miles 10+ km)
Ceiling: at least 12,000 feet AGL
Clouds: scattered clouds at 3500 feet AGL
Weather: no significant weather forecast for this period
Text: BECMG 2204/2206 21009KT
Forecast period: 0400 UTC 22 April 2019 to 0000 UTC 23 April 2019
Forecast type: BECOMING: Conditions expected to become as follows by 0600 UTC 22 April 2019
Winds: from the SSW (210 degrees) at 10 MPH (9 knots; 4.6 m/s)
Visibility: 6 or more miles 10+ km)
Ceiling: at least 12,000 feet AGL
Clouds: scattered clouds at 3500 feet AGL
Weather: no significant weather forecast for this period
Text: TEMPO 2211/2218 01019KT
Forecast period: 1100 to 1800 UTC 22 April 2019
Forecast type: TEMPORARY: The following changes expected for less than half the time period
Winds: from the N (10 degrees) at 22 MPH (19 knots; 9.8 m/s)
Visibility: missing
Ceiling: unknown
Clouds: missing
Weather: no significant weather forecast for this period
Text: BECMG 2300/2302 35015KT
Forecast period: 0000 to 0300 UTC 23 April 2019
Forecast type: BECOMING: Conditions expected to become as follows by 0200 UTC 23 April 2019
Winds: from the N (350 degrees) at 17 MPH (15 knots; 7.7 m/s)
Visibility: 6 or more miles 10+ km)
Ceiling: at least 12,000 feet AGL
Clouds: scattered clouds at 3500 feet AGL
Weather: no significant weather forecast for this period